Time;durP1;ratioP1;P1;durP2;ratioP2;P2;SDS_P1;SDS_P2;PMS_P1;PMS_P2;Temp;Humidity;BMP_temperature;BMP_pressure;BME280_temperature;BME280_humidity;BME280_pressure;Samples;Min_cycle;Max_cycle;Signal;HPM_P1;HPM_P2
2022/08/06 00:01:33;;;;;;;2.05;1.67;;;17.40;99.90;;;17.20;100.00;97760.00;4999244;28;20038;-39
2022/08/06 00:03:59;;;;;;;1.48;1.38;;;17.40;99.90;;;17.36;100.00;97773.28;4996374;28;20064;-40
2022/08/06 00:06:25;;;;;;;2.10;1.50;;;17.40;99.90;;;17.34;100.00;97776.03;4998342;28;20038;-40
2022/08/06 00:08:51;;;;;;;2.70;1.60;;;17.50;99.90;;;17.36;100.00;97778.63;5000780;28;22090;-40
2022/08/06 00:11:16;;;;;;;3.47;1.50;;;17.50;99.90;;;17.40;100.00;97773.97;4998033;28;20048;-40
2022/08/06 00:13:42;;;;;;;1.52;1.42;;;17.50;99.90;;;17.43;100.00;97776.47;4996612;28;20084;-40
2022/08/06 00:16:08;;;;;;;2.38;1.50;;;17.50;99.90;;;17.30;100.00;97760.31;4996186;28;20264;-40
2022/08/06 00:18:33;;;;;;;5.18;1.60;;;17.50;99.90;;;17.43;100.00;97781.78;4995323;28;20048;-40
2022/08/06 00:20:59;;;;;;;2.28;1.77;;;17.50;99.90;;;17.43;100.00;97771.13;4991711;28;20037;-40
2022/08/06 00:23:25;;;;;;;2.15;1.38;;;17.50;99.90;;;17.44;100.00;97781.69;4998375;28;20129;-40
2022/08/06 00:25:52;;;;;;;1.50;1.30;;;17.50;99.90;;;17.40;100.00;97777.50;4994170;28;20619;-47
2022/08/06 00:28:17;;;;;;;3.08;1.63;;;17.50;99.90;;;17.45;100.00;97774.56;4993371;28;20049;-39
2022/08/06 00:30:43;;;;;;;2.10;1.60;;;17.50;99.90;;;17.50;100.00;97780.50;4995065;28;20504;-40
2022/08/06 00:33:09;;;;;;;2.33;1.58;;;17.60;99.90;;;17.36;100.00;97751.97;4995678;28;20401;-40
2022/08/06 00:35:34;;;;;;;3.40;1.48;;;17.60;99.90;;;17.50;100.00;97785.81;4977303;28;20042;-40
2022/08/06 00:38:00;;;;;;;2.25;1.48;;;17.60;99.90;;;17.49;100.00;97781.41;4999449;28;20030;-40
2022/08/06 00:40:29;;;;;;;4.43;1.80;;;17.60;99.90;;;17.44;100.00;97775.50;4995736;28;20057;-40
2022/08/06 00:43:00;;;;;;;1.63;1.35;;;17.60;99.90;;;17.53;96.90;97781.16;5001855;28;20030;-40
2022/08/06 00:45:26;;;;;;;3.58;1.70;;;17.60;99.90;;;17.56;97.23;97777.44;4979823;28;20026;-41
2022/08/06 00:47:52;;;;;;;5.45;1.55;;;17.70;99.90;;;17.56;97.90;97780.97;4982054;28;20449;-40
2022/08/06 00:50:18;;;;;;;1.92;1.33;;;17.70;99.90;;;17.59;99.24;97781.75;4995692;28;20030;-40
2022/08/06 00:52:45;;;;;;;2.58;1.52;;;17.70;99.90;;;17.59;100.00;97792.44;4995262;28;20032;-40
2022/08/06 00:55:12;;;;;;;2.95;1.60;;;17.70;99.90;;;17.60;100.00;97792.31;5005730;28;20274;-40
2022/08/06 00:57:38;;;;;;;3.10;1.88;;;17.70;99.90;;;17.59;100.00;97798.59;4998238;28;20033;-41
2022/08/06 01:00:06;;;;;;;2.30;1.27;;;17.70;99.90;;;17.60;97.30;97805.63;4995130;28;20058;-40
2022/08/06 01:02:32;;;;;;;2.25;1.52;;;17.70;99.90;;;17.62;95.21;97809.09;4998455;28;20079;-40
2022/08/06 01:04:58;;;;;;;1.63;1.30;;;17.70;99.90;;;17.63;94.40;97799.28;4989970;28;20029;-39
2022/08/06 01:07:24;;;;;;;2.08;1.30;;;17.70;99.90;;;17.64;94.31;97806.31;4999249;28;20061;-39
2022/08/06 01:09:50;;;;;;;2.05;1.20;;;17.70;99.90;;;17.59;94.56;97801.28;4993537;28;20037;-40
2022/08/06 01:12:16;;;;;;;2.90;1.40;;;17.80;99.90;;;17.63;94.59;97810.81;4994050;28;20029;-40
2022/08/06 01:14:42;;;;;;;4.47;1.17;;;17.70;99.90;;;17.63;95.04;97809.94;4996392;28;20052;-39
2022/08/06 01:17:38;;;;;;;3.08;1.17;;;17.70;99.90;;;17.63;94.44;97808.13;4995655;28;20038;-40
2022/08/06 01:20:52;;;;;;;1.98;0.90;;;17.70;99.90;;;17.64;91.47;97812.53;4975327;28;20076;-41
2022/08/06 01:24:10;;;;;;;2.38;1.30;;;17.80;99.90;;;17.67;85.02;97811.47;5012746;22;20729;-45
2022/08/06 01:26:44;;;;;;;1.63;1.02;;;17.80;99.90;;;17.63;84.09;97794.81;5014972;28;20116;-45
2022/08/06 01:29:25;;;;;;;1.40;1.02;;;17.80;99.90;;;17.73;85.71;97808.47;4997185;28;20175;-45
2022/08/06 01:31:59;;;;;;;1.98;1.10;;;17.80;99.90;;;17.73;84.29;97808.47;4996908;28;20091;-47
2022/08/06 01:34:35;;;;;;;2.22;1.15;;;17.80;99.90;;;17.74;85.18;97816.34;5014378;28;20033;-45
2022/08/06 01:37:16;;;;;;;1.40;0.90;;;17.80;99.90;;;17.74;85.28;97811.03;4986647;28;20484;-48
2022/08/06 01:39:46;;;;;;;1.38;0.88;;;17.80;99.90;;;17.72;86.11;97810.25;4993375;28;20127;-48
2022/08/06 01:42:13;;;;;;;2.53;1.33;;;17.80;99.90;;;17.67;84.23;97807.00;5008418;28;20037;-45
2022/08/06 01:44:43;;;;;;;1.42;1.17;;;17.80;99.90;;;17.66;86.12;97815.13;4994356;28;20037;-45
2022/08/06 01:47:12;;;;;;;2.80;1.10;;;17.80;99.90;;;17.60;84.87;97816.31;4992968;28;20041;-45
2022/08/06 01:49:42;;;;;;;1.23;1.08;;;17.70;99.90;;;17.58;85.75;97820.03;4993984;28;20078;-46
2022/08/06 01:52:10;;;;;;;1.30;1.10;;;17.70;99.90;;;17.49;81.81;97806.28;4986146;28;20037;-46
2022/08/06 01:54:43;;;;;;;3.28;1.10;;;17.70;99.90;;;17.52;82.25;97818.59;4997526;28;20029;-45
2022/08/06 01:57:11;;;;;;;2.60;0.90;;;17.70;99.90;;;17.52;81.69;97823.91;4994223;28;20100;-45
2022/08/06 01:59:44;;;;;;;1.27;1.00;;;17.70;99.90;;;17.53;81.40;97821.16;4996198;28;20036;-46
2022/08/06 02:02:18;;;;;;;5.13;1.15;;;17.70;99.90;;;17.55;80.56;97818.41;4995539;28;20065;-46
2022/08/06 02:04:48;;;;;;;2.28;1.10;;;17.70;99.90;;;17.56;82.38;97820.13;5006649;28;20403;-48
2022/08/06 02:07:16;;;;;;;2.58;1.10;;;17.70;99.90;;;17.55;83.21;97816.59;5012821;28;20142;-45
2022/08/06 02:09:44;;;;;;;1.40;1.10;;;17.70;99.90;;;17.48;82.91;97815.25;5001635;28;20036;-46
2022/08/06 02:12:17;;;;;;;1.45;0.90;;;17.60;99.90;;;17.40;84.45;97813.97;4993970;28;20029;-50
2022/08/06 02:14:53;;;;;;;1.30;1.00;;;17.60;99.90;;;17.29;84.90;97815.44;4994276;28;20116;-50
2022/08/06 02:17:24;;;;;;;1.60;0.90;;;17.50;99.90;;;17.20;84.85;97813.31;5013103;28;20718;-48
2022/08/06 02:19:52;;;;;;;1.67;1.00;;;17.40;99.90;;;17.10;85.39;97809.44;4995814;28;20045;-49
2022/08/06 02:22:18;;;;;;;1.83;1.05;;;17.30;99.90;;;17.02;84.55;97817.03;5011053;28;20465;-50
2022/08/06 02:24:47;;;;;;;1.92;1.40;;;17.20;99.90;;;16.98;84.30;97824.31;4977691;28;20045;-50
2022/08/06 02:27:14;;;;;;;2.80;1.10;;;17.20;99.90;;;16.80;84.21;97804.88;5012505;28;20115;-50
2022/08/06 02:29:42;;;;;;;1.88;1.00;;;17.10;99.90;;;16.85;83.62;97818.84;4992329;28;20025;-47
2022/08/06 02:32:08;;;;;;;1.95;1.10;;;17.10;99.90;;;16.87;84.46;97822.25;4993558;28;20033;-48
2022/08/06 02:34:34;;;;;;;1.85;1.00;;;17.00;99.90;;;16.85;85.86;97818.84;5009191;28;20044;-48
2022/08/06 02:37:13;;;;;;;2.05;1.10;;;17.00;99.90;;;16.80;84.88;97813.72;4998653;28;20068;-48
2022/08/06 02:39:50;;;;;;;3.30;1.20;;;17.00;99.90;;;16.80;83.69;97820.84;4993112;28;20063;-48
2022/08/06 02:42:23;;;;;;;1.95;1.10;;;17.00;99.90;;;16.74;84.96;97819.38;4993704;28;20040;-46
2022/08/06 02:45:05;;;;;;;1.60;0.95;;;17.00;99.90;;;16.73;85.52;97825.66;5013162;28;20405;-45
2022/08/06 02:47:43;;;;;;;2.25;1.20;;;16.90;99.90;;;16.70;85.25;97835.59;4987933;28;20026;-46
2022/08/06 02:50:12;;;;;;;2.25;1.20;;;16.90;99.90;;;16.69;85.09;97831.22;4981998;28;20034;-46
2022/08/06 02:52:49;;;;;;;3.80;1.17;;;16.90;99.90;;;16.70;86.17;97832.94;4992504;28;20029;-47
2022/08/06 02:55:20;;;;;;;1.52;1.02;;;16.90;99.90;;;16.77;85.82;97837.00;4994377;28;20030;-46
2022/08/06 02:57:50;;;;;;;2.30;1.10;;;16.90;99.90;;;16.85;85.52;97833.94;5009905;28;20397;-46
2022/08/06 03:00:17;;;;;;;1.67;1.23;;;17.00;99.90;;;16.90;86.75;97832.72;5010788;28;20104;-48
2022/08/06 03:02:45;;;;;;;1.35;0.82;;;17.00;99.90;;;16.95;85.30;97836.00;5008894;28;20397;-46
2022/08/06 03:05:17;;;;;;;2.05;1.13;;;17.10;99.90;;;16.98;84.68;97838.50;4992619;28;20034;-45
2022/08/06 03:07:46;;;;;;;2.83;1.25;;;17.20;99.90;;;17.06;83.83;97838.06;5014535;28;20088;-51
2022/08/06 03:10:13;;;;;;;1.80;1.00;;;17.20;99.90;;;17.08;83.68;97838.81;4992718;28;20107;-47
2022/08/06 03:12:41;;;;;;;2.83;1.08;;;17.20;99.90;;;17.13;83.56;97835.91;4992914;28;20025;-47
2022/08/06 03:15:08;;;;;;;1.13;0.90;;;17.30;99.90;;;17.13;83.38;97838.59;4995246;28;20163;-46
2022/08/06 03:17:36;;;;;;;2.83;1.08;;;17.30;99.90;;;17.10;83.13;97834.28;5007561;28;20040;-46
2022/08/06 03:20:04;;;;;;;1.95;0.95;;;17.30;99.90;;;17.14;83.82;97835.84;4992483;28;20074;-45
2022/08/06 03:22:32;;;;;;;4.85;1.60;;;17.30;99.90;;;17.11;84.80;97841.31;5016663;28;20032;-46
2022/08/06 03:25:00;;;;;;;1.65;0.93;;;17.30;99.90;;;17.09;85.77;97837.03;4989412;28;20022;-45
2022/08/06 03:27:26;;;;;;;2.30;1.05;;;17.30;99.90;;;17.10;85.20;97834.28;5001603;28;20592;-46
2022/08/06 03:29:54;;;;;;;1.98;1.10;;;17.30;99.90;;;17.11;84.48;97832.47;5016676;28;20072;-47
2022/08/06 03:32:20;;;;;;;3.00;1.67;;;17.30;99.90;;;17.10;84.02;97844.97;5019132;28;20397;-47
2022/08/06 03:34:47;;;;;;;2.00;0.90;;;17.30;99.90;;;17.10;82.86;97852.06;5002478;28;20038;-48
2022/08/06 03:37:16;;;;;;;2.08;1.30;;;17.30;99.90;;;17.07;81.63;97852.25;4994695;28;20032;-46
2022/08/06 03:39:44;;;;;;;1.85;1.30;;;17.30;99.90;;;17.10;81.62;97855.63;5000711;28;20048;-46
2022/08/06 03:42:10;;;;;;;3.20;1.30;;;17.30;99.90;;;17.10;81.50;97865.38;5020857;28;20128;-49
2022/08/06 03:44:36;;;;;;;3.75;1.10;;;17.30;99.90;;;17.10;81.99;97866.28;5016580;28;20096;-49
2022/08/06 03:47:24;;;;;;;3.50;0.98;;;17.30;99.90;;;17.08;82.25;97865.47;5011086;28;21211;-47
2022/08/06 03:50:09;;;;;;;1.45;1.00;;;17.30;99.90;;;17.01;81.17;97849.91;5000975;28;20028;-49
2022/08/06 03:52:47;;;;;;;2.40;1.27;;;17.30;99.90;;;17.04;81.25;97871.94;4993809;28;20124;-48
2022/08/06 03:55:22;;;;;;;2.13;0.93;;;17.20;99.90;;;17.02;81.72;97860.50;5014753;28;20480;-50
2022/08/06 03:57:51;;;;;;;2.05;1.30;;;17.20;99.90;;;17.05;81.48;97867.44;5001177;28;20041;-49
2022/08/06 04:00:19;;;;;;;2.83;1.20;;;17.20;99.90;;;17.09;81.82;97869.88;4994229;28;20175;-50
2022/08/06 04:02:53;;;;;;;2.17;1.17;;;17.30;99.90;;;17.10;81.71;97876.06;4998654;28;20430;-49
2022/08/06 04:05:22;;;;;;;2.88;1.00;;;17.30;99.90;;;17.10;82.01;97871.59;5011482;28;20037;-47
2022/08/06 04:07:51;;;;;;;4.43;1.00;;;17.30;99.90;;;17.09;81.69;97877.88;5010056;28;20064;-49
2022/08/06 04:10:18;;;;;;;1.88;1.10;;;17.30;99.90;;;16.82;81.57;97832.28;5019156;28;20191;-50
2022/08/06 04:12:45;;;;;;;4.90;1.08;;;17.30;99.90;;;17.09;82.30;97879.69;4993261;28;20098;-49
2022/08/06 04:15:14;;;;;;;2.78;1.15;;;17.30;99.90;;;17.08;81.82;97883.28;5016798;28;20101;-46
2022/08/06 04:17:44;;;;;;;1.45;1.10;;;17.30;99.90;;;17.10;81.98;97882.25;4999552;28;20508;-47
2022/08/06 04:20:14;;;;;;;3.95;1.02;;;17.30;99.90;;;17.10;82.32;97884.94;5015463;28;20025;-49
2022/08/06 04:22:40;;;;;;;1.65;1.10;;;17.30;99.90;;;17.06;80.48;97875.38;5013952;28;20033;-47
2022/08/06 04:25:07;;;;;;;1.42;1.10;;;17.30;99.90;;;17.12;80.09;97888.38;5008430;28;20532;-46
2022/08/06 04:27:35;;;;;;;2.40;1.20;;;17.30;99.90;;;17.10;80.71;97879.59;5008478;28;20607;-45
2022/08/06 04:30:01;;;;;;;3.95;1.15;;;17.30;99.90;;;17.16;80.58;97886.38;5009351;28;20030;-47
2022/08/06 04:32:28;;;;;;;2.58;1.30;;;17.30;99.90;;;17.17;80.10;97891.63;5010077;28;20037;-49
2022/08/06 04:34:55;;;;;;;2.33;1.42;;;17.40;99.90;;;17.18;80.75;97898.66;4994398;28;20033;-46
2022/08/06 04:37:21;;;;;;;3.47;1.20;;;17.40;99.90;;;17.19;81.36;97896.84;4992236;28;20038;-47
2022/08/06 04:39:47;;;;;;;2.35;1.20;;;17.40;99.90;;;17.25;80.79;97903.69;5010179;28;20041;-49
2022/08/06 04:42:13;;;;;;;3.08;1.17;;;17.40;99.90;;;17.30;80.51;97904.25;5006337;28;20437;-47
2022/08/06 04:44:39;;;;;;;5.25;1.27;;;17.40;99.90;;;17.29;80.62;97908.72;4989639;28;20167;-48
2022/08/06 04:47:06;;;;;;;1.73;1.20;;;17.50;99.90;;;17.31;80.35;97912.16;4989341;28;20025;-49
2022/08/06 04:49:31;;;;;;;1.40;1.10;;;17.50;99.90;;;17.30;80.05;97909.59;4995121;28;20121;-46
2022/08/06 04:51:57;;;;;;;1.48;1.20;;;17.50;99.90;;;17.30;80.39;97910.47;5013219;28;20025;-49
2022/08/06 04:54:23;;;;;;;1.52;1.00;;;17.50;99.90;;;17.35;79.30;97919.06;5009878;28;20488;-45
2022/08/06 04:56:49;;;;;;;1.40;1.05;;;17.50;99.90;;;17.34;79.60;97919.16;5008680;28;20034;-45
2022/08/06 04:59:14;;;;;;;2.25;1.13;;;17.50;99.90;;;17.33;79.67;97920.94;5004553;28;20104;-46
2022/08/06 05:01:40;;;;;;;1.17;1.08;;;17.50;99.90;;;17.35;80.29;97921.72;5002393;28;23653;-46
2022/08/06 05:04:06;;;;;;;1.48;1.17;;;17.50;99.90;;;17.36;78.88;97914.59;4987483;28;20040;-46
2022/08/06 05:06:43;;;;;;;1.70;1.10;;;17.50;99.90;;;17.35;79.39;97919.06;5006334;28;20746;-47
2022/08/06 05:09:16;;;;;;;1.40;1.17;;;17.50;99.90;;;17.38;79.98;97922.50;4995150;28;20028;-47
2022/08/06 05:11:51;;;;;;;2.58;1.30;;;17.60;99.90;;;17.42;79.18;97929.38;5020297;28;20029;-46
2022/08/06 05:14:26;;;;;;;2.00;0.90;;;17.60;99.90;;;17.40;79.58;97937.44;5004810;28;20034;-48
2022/08/06 05:16:54;;;;;;;1.60;0.88;;;17.50;99.90;;;17.40;79.46;97949.94;5003458;28;20045;-45
2022/08/06 05:19:26;;;;;;;2.03;0.95;;;17.50;99.90;;;17.38;79.67;97952.69;5017589;28;20603;-47
2022/08/06 05:21:55;;;;;;;2.40;1.23;;;17.50;99.90;;;17.36;79.75;97947.44;5007822;28;20588;-46
2022/08/06 05:24:21;;;;;;;1.95;1.10;;;17.50;99.90;;;17.30;80.32;97944.22;5007193;28;20026;-45
2022/08/06 05:26:48;;;;;;;2.83;1.20;;;17.50;99.90;;;17.33;81.05;97949.41;4993142;28;20397;-45
2022/08/06 05:29:19;;;;;;;1.98;1.08;;;17.50;99.90;;;17.30;81.57;97955.78;5024856;28;20025;-46
2022/08/06 05:31:45;;;;;;;3.78;1.33;;;17.40;99.90;;;17.29;80.49;97942.53;5002103;28;20030;-46
2022/08/06 05:34:12;;;;;;;1.73;1.20;;;17.40;99.90;;;17.31;80.83;97946.81;5026205;28;20033;-47
2022/08/06 05:36:38;;;;;;;1.63;1.20;;;17.40;99.90;;;17.32;81.70;97945.88;5011523;28;20479;-47
2022/08/06 05:39:06;;;;;;;3.20;1.30;;;17.40;99.90;;;17.31;81.50;97954.81;5024982;28;20056;-47
2022/08/06 05:41:34;;;;;;;4.07;1.45;;;17.50;99.90;;;17.05;80.27;97910.97;5020153;28;20108;-46
2022/08/06 05:44:00;;;;;;;1.63;1.35;;;17.50;99.90;;;17.36;81.01;97957.25;5027999;28;20544;-47
2022/08/06 05:46:34;;;;;;;1.42;1.10;;;17.40;99.90;;;17.42;81.16;97962.22;5022647;28;20520;-45
2022/08/06 05:49:02;;;;;;;1.42;1.00;;;17.60;99.90;;;17.46;79.99;97953.13;5011753;28;20037;-45
2022/08/06 05:52:26;;;;;;;2.50;1.75;;;17.50;99.90;;;17.47;80.41;97961.97;5022558;28;20079;-45
2022/08/06 05:54:59;;;;;;;1.85;1.10;;;17.60;99.90;;;17.49;81.49;97955.59;5005566;28;20567;-45
2022/08/06 05:57:36;;;;;;;2.40;1.50;;;17.60;99.90;;;17.53;80.54;97959.84;5022850;28;20070;-45
2022/08/06 06:00:10;;;;;;;1.23;1.05;;;17.60;99.90;;;17.58;80.61;97966.72;5009881;28;20054;-46
2022/08/06 06:02:41;;;;;;;2.08;1.25;;;17.70;99.90;;;17.52;79.90;97960.75;5019661;28;20029;-45
2022/08/06 06:05:08;;;;;;;2.60;1.42;;;17.70;99.90;;;17.59;78.96;97971.09;5004231;28;20037;-45
2022/08/06 06:07:35;;;;;;;5.22;1.23;;;17.80;99.90;;;17.63;78.77;97969.97;5005970;28;20022;-46
2022/08/06 06:10:03;;;;;;;2.92;1.40;;;17.80;99.90;;;17.65;80.27;97960.06;5013024;28;20033;-46
2022/08/06 06:12:31;;;;;;;2.83;1.40;;;17.80;99.90;;;17.78;79.45;97973.56;5004493;28;20180;-45
2022/08/06 06:14:58;;;;;;;2.97;1.40;;;17.90;99.90;;;17.81;79.37;97978.75;5024339;28;20071;-45
2022/08/06 06:17:56;;;;;;;2.10;1.20;;;17.90;99.90;;;17.87;79.03;97973.97;5007625;28;20044;-46
2022/08/06 06:21:03;;;;;;;3.60;1.40;;;18.00;99.90;;;17.93;78.89;97975.41;5022281;28;20037;-45
2022/08/06 06:23:59;;;;;;;1.20;1.10;;;18.10;99.90;;;18.06;77.23;97980.88;5017494;28;20486;-50
2022/08/06 06:26:45;;;;;;;2.55;1.50;;;18.20;99.90;;;18.16;75.85;97986.53;5024757;28;20042;-47
2022/08/06 06:29:42;;;;;;;4.30;1.55;;;18.30;99.90;;;18.24;75.51;97984.28;4998483;28;20025;-49
2022/08/06 06:32:17;;;;;;;3.58;1.40;;;18.40;99.90;;;18.31;76.87;97988.31;5022479;28;20472;-45
2022/08/06 06:35:03;;;;;;;2.80;1.48;;;18.40;99.90;;;18.35;75.51;97989.84;5004642;28;20041;-47
2022/08/06 06:37:46;;;;;;;2.65;1.35;;;18.50;99.90;;;18.22;76.35;97975.53;5003636;28;20609;-46
2022/08/06 06:40:49;;;;;;;1.77;1.13;;;18.50;99.90;;;18.43;76.35;97998.28;5023812;28;20048;-46
2022/08/06 06:43:22;;;;;;;4.93;1.65;;;18.60;99.90;;;18.54;76.66;98004.78;5024207;28;20053;-49
2022/08/06 06:46:22;;;;;;;2.35;1.42;;;18.60;99.90;;;18.81;75.63;98008.50;5020661;28;20072;-49
2022/08/06 06:49:00;;;;;;;3.40;1.40;;;18.90;99.90;;;19.04;74.08;98003.53;5004317;28;20065;-48
2022/08/06 06:51:33;;;;;;;4.45;1.60;;;19.20;99.90;;;19.30;72.98;98009.94;5002919;28;20466;-44
2022/08/06 06:53:59;;;;;;;1.90;1.45;;;19.40;99.90;;;19.47;71.40;98011.59;5006898;28;20234;-41
2022/08/06 06:56:37;;;;;;;3.38;1.60;;;19.60;99.90;;;19.60;70.81;98004.47;5008678;28;20036;-48
2022/08/06 06:59:18;;;;;;;1.85;1.42;;;19.80;99.90;;;19.87;69.13;98010.88;5010425;28;20030;-47
2022/08/06 07:01:46;;;;;;;3.97;1.42;;;20.10;99.90;;;20.06;67.70;98013.19;5008343;28;20040;-49
2022/08/06 07:04:16;;;;;;;4.30;1.65;;;20.20;99.90;;;19.96;66.14;98016.47;5012816;28;20075;-47
2022/08/06 07:06:47;;;;;;;3.75;1.75;;;20.30;99.90;;;20.06;66.81;98015.84;5036705;28;20032;-47
2022/08/06 07:09:23;;;;;;;2.70;1.25;;;20.30;99.90;;;20.13;66.83;98017.19;5030998;28;20070;-45
2022/08/06 07:11:52;;;;;;;3.85;1.90;;;20.40;99.90;;;19.91;66.25;98026.63;5007690;28;20396;-47
2022/08/06 07:14:21;;;;;;;4.45;1.40;;;20.30;99.90;;;19.98;66.66;98022.56;5024327;28;20029;-46
2022/08/06 07:16:50;;;;;;;3.47;1.75;;;20.20;99.90;;;19.75;67.61;98023.22;5009726;28;20043;-44
2022/08/06 07:19:17;;;;;;;2.80;1.83;;;20.10;99.90;;;19.61;68.25;98024.94;5029749;28;20528;-46
2022/08/06 07:21:45;;;;;;;2.35;1.83;;;20.00;99.90;;;19.39;69.01;97996.00;5009362;28;20041;-48
2022/08/06 07:24:13;;;;;;;5.72;1.40;;;19.90;99.90;;;19.48;68.81;98023.13;5018470;23;20041;-41
2022/08/06 07:26:41;;;;;;;2.67;1.65;;;19.80;99.90;;;19.44;70.65;98017.97;5008137;28;20041;-40
2022/08/06 07:29:09;;;;;;;2.38;1.40;;;19.70;99.90;;;19.42;70.56;98019.03;5008784;28;20076;-41
2022/08/06 07:31:37;;;;;;;3.08;1.77;;;19.60;99.90;;;19.46;68.33;98023.22;5022948;28;20532;-40
2022/08/06 07:34:04;;;;;;;3.72;1.70;;;19.60;99.90;;;19.33;69.17;98020.47;5026626;28;20255;-40
2022/08/06 07:36:48;;;;;;;2.20;1.48;;;19.60;99.90;;;19.37;69.93;98023.81;5023300;28;20025;-40
2022/08/06 07:39:22;;;;;;;3.67;1.77;;;19.60;99.90;;;19.40;68.47;98037.00;5007887;28;20120;-40
2022/08/06 07:41:51;;;;;;;7.25;2.08;;;19.60;99.90;;;19.39;68.73;98025.41;5008966;28;20087;-40
2022/08/06 07:44:20;;;;;;;2.72;1.85;;;19.70;99.90;;;19.24;68.86;98021.03;5010545;28;20068;-42
2022/08/06 07:46:49;;;;;;;2.88;1.95;;;19.60;99.90;;;19.34;69.50;98035.53;5020545;28;20489;-40
2022/08/06 07:49:19;;;;;;;4.72;1.50;;;19.60;99.90;;;19.32;69.83;98023.22;5021444;28;20032;-39
2022/08/06 07:51:46;;;;;;;2.03;1.30;;;19.60;99.90;;;19.52;69.41;98024.66;5024120;28;20029;-39
2022/08/06 07:54:14;;;;;;;8.77;1.90;;;19.70;99.90;;;19.71;68.22;98029.69;5012829;28;20040;-40
2022/08/06 07:56:42;;;;;;;3.92;1.95;;;19.80;99.90;;;19.93;65.62;98035.41;5021709;28;20043;-39
2022/08/06 07:59:09;;;;;;;3.13;1.95;;;20.10;99.90;;;20.15;65.08;98028.63;5009652;28;20083;-40
2022/08/06 08:01:37;;;;;;;3.00;1.40;;;20.30;99.90;;;20.35;64.86;98038.03;5003996;28;20044;-40
2022/08/06 08:07:00;;;;;;;4.18;1.70;;;20.70;99.90;;;20.69;62.13;98028.63;5008211;28;20095;-40
2022/08/06 08:09:26;;;;;;;3.83;1.75;;;20.80;99.90;;;20.65;62.47;98026.25;5023706;28;20025;-40
2022/08/06 08:11:53;;;;;;;5.50;1.92;;;20.90;99.90;;;20.59;60.85;98017.63;5004301;28;20040;-40
2022/08/06 08:14:21;;;;;;;4.05;1.25;;;20.90;99.90;;;20.76;60.34;98026.38;5001087;28;20465;-39
2022/08/06 08:16:49;;;;;;;2.88;1.58;;;21.00;99.90;;;20.94;60.35;98011.72;5021848;28;20029;-40
2022/08/06 08:19:32;;;;;;;4.10;2.13;;;21.20;99.90;;;21.16;58.02;98026.31;5020583;28;20216;-40
2022/08/06 08:22:16;;;;;;;4.22;1.67;;;21.50;98.80;;;21.51;58.36;98021.13;5022132;28;20025;-39
2022/08/06 08:24:45;;;;;;;3.80;1.45;;;21.80;98.90;;;21.96;56.88;98012.53;5024875;28;20059;-39
2022/08/06 08:27:11;;;;;;;2.85;1.55;;;22.30;98.40;;;22.16;55.99;98000.28;5023630;28;20017;-40
2022/08/06 08:29:39;;;;;;;2.30;1.40;;;22.60;97.70;;;22.47;53.87;98008.78;5026729;28;20404;-40
2022/08/06 08:32:06;;;;;;;3.20;1.42;;;22.80;96.80;;;22.53;53.16;98007.47;5024157;28;20100;-40
2022/08/06 08:34:33;;;;;;;1.40;1.30;;;22.80;96.30;;;22.53;52.75;98005.63;5024434;28;20345;-40
2022/08/06 08:36:59;;;;;;;2.88;1.23;;;22.80;95.80;;;22.64;53.34;98004.81;5025560;28;20500;-40
2022/08/06 08:39:25;;;;;;;1.77;1.38;;;22.90;95.80;;;22.77;50.93;98010.09;5022772;28;20457;-41
2022/08/06 08:42:06;;;;;;;2.33;1.52;;;23.00;95.30;;;22.75;53.00;98020.09;5022517;28;20026;-40
2022/08/06 08:44:33;;;;;;;1.57;1.20;;;23.00;95.50;;;22.96;52.27;98026.50;5022625;28;20029;-40
2022/08/06 08:47:02;;;;;;;2.67;1.30;;;23.10;95.40;;;22.85;50.22;98019.28;5023030;28;20573;-40
2022/08/06 08:49:37;;;;;;;3.67;1.70;;;23.10;93.80;;;22.45;50.18;98016.09;5024785;28;20689;-40
2022/08/06 08:52:07;;;;;;;3.63;1.35;;;22.90;93.60;;;22.36;51.95;98017.66;5008171;28;20029;-40
2022/08/06 08:54:36;;;;;;;2.92;1.40;;;22.70;94.30;;;22.24;53.38;98018.56;5022969;28;20056;-40
2022/08/06 08:57:08;;;;;;;4.53;1.55;;;22.50;94.70;;;22.21;52.70;98016.09;5002984;28;20465;-39
2022/08/06 08:59:36;;;;;;;3.05;1.75;;;22.50;94.50;;;22.16;51.02;98026.31;5025846;28;20381;-40
2022/08/06 09:02:03;;;;;;;1.92;1.40;;;22.40;94.00;;;21.76;51.95;98021.19;5023080;28;20033;-40
2022/08/06 09:04:32;;;;;;;2.60;1.58;;;22.20;93.60;;;21.54;52.52;98020.91;5023333;28;20259;-40
2022/08/06 09:06:58;;;;;;;1.77;1.35;;;21.90;93.80;;;21.57;53.76;98027.03;5023732;28;20388;-40
2022/08/06 09:09:26;;;;;;;3.78;1.70;;;21.80;94.50;;;21.40;54.67;98021.00;5023546;28;20156;-40
2022/08/06 09:11:52;;;;;;;4.95;1.90;;;21.70;94.80;;;21.35;54.91;98025.84;5008837;28;20048;-40
2022/08/06 09:14:21;;;;;;;4.28;1.83;;;21.70;95.00;;;21.21;54.32;98029.53;5025651;28;20440;-39
2022/08/06 09:16:47;;;;;;;3.17;1.80;;;21.60;94.60;;;21.33;53.93;98035.81;5021512;28;20044;-40
2022/08/06 09:19:13;;;;;;;2.92;1.40;;;21.60;94.50;;;21.35;55.47;98034.78;5028257;28;20608;-40
2022/08/06 09:21:39;;;;;;;5.07;1.70;;;21.60;95.20;;;21.47;55.64;98033.06;5022404;28;20063;-40
2022/08/06 09:24:05;;;;;;;2.88;1.60;;;21.70;95.20;;;21.66;55.68;98026.34;5008247;28;20025;-40
2022/08/06 09:26:33;;;;;;;4.47;1.75;;;22.00;95.20;;;21.88;53.97;98026.53;5012206;28;20029;-40
2022/08/06 09:28:59;;;;;;;2.90;1.30;;;22.30;94.70;;;22.25;54.24;98039.06;5007564;28;20025;-40
2022/08/06 09:31:25;;;;;;;4.15;1.60;;;22.50;94.60;;;22.38;52.21;98039.00;5019688;28;21402;-40
2022/08/06 09:34:02;;;;;;;2.10;1.50;;;22.60;94.10;;;22.24;49.94;98040.03;5005376;28;20068;-40
2022/08/06 09:36:28;;;;;;;2.45;1.30;;;22.50;92.60;;;22.08;51.18;98034.94;5002175;28;20503;-40
2022/08/06 09:38:56;;;;;;;4.47;1.80;;;22.40;92.70;;;21.94;51.97;98041.31;5024591;28;20040;-40
2022/08/06 09:41:25;;;;;;;2.38;1.60;;;22.30;93.20;;;21.87;52.43;98040.91;5022182;28;20033;-40
2022/08/06 09:43:53;;;;;;;1.85;1.42;;;22.20;93.30;;;22.02;52.41;98041.63;5021527;28;20037;-40
2022/08/06 09:46:45;;;;;;;6.20;1.70;;;22.20;93.70;;;22.00;51.74;98043.56;5002706;28;20492;-40
2022/08/06 09:49:14;;;;;;;2.97;1.10;;;22.20;92.70;;;22.12;49.00;98029.22;5023935;28;20037;-40
2022/08/06 09:51:40;;;;;;;4.15;2.00;;;22.30;92.00;;;22.07;50.45;98030.53;5021459;28;20037;-40
2022/08/06 09:54:12;;;;;;;2.47;1.58;;;22.30;92.10;;;22.12;51.33;98037.28;5019499;28;20037;-40
2022/08/06 09:56:39;;;;;;;1.65;1.27;;;22.30;92.50;;;22.16;50.78;98037.06;5001482;28;20109;-39
2022/08/06 09:59:07;;;;;;;4.03;1.30;;;22.40;92.60;;;22.20;50.12;98030.47;5006861;28;20033;-40
2022/08/06 10:01:45;;;;;;;2.85;1.52;;;22.40;92.60;;;22.04;50.24;98028.94;5024278;28;20052;-40
2022/08/06 10:04:24;;;;;;;3.67;1.48;;;22.30;92.00;;;21.98;52.07;98039.28;5019712;28;20026;-40
2022/08/06 10:06:55;;;;;;;3.28;1.60;;;22.20;92.60;;;21.89;50.83;98041.69;5023949;28;20095;-40
2022/08/06 10:09:22;;;;;;;3.33;1.73;;;22.10;92.20;;;21.80;51.30;98036.94;5020184;28;20377;-40
2022/08/06 10:11:48;;;;;;;1.90;1.20;;;22.10;92.50;;;21.95;51.42;98045.75;5021726;28;20030;-40
2022/08/06 10:14:29;;;;;;;2.42;1.52;;;22.10;92.80;;;21.92;50.69;98040.59;5020056;28;20095;-40
2022/08/06 10:17:14;;;;;;;3.28;1.40;;;22.20;92.00;;;22.30;48.92;98045.81;5023349;28;20626;-40
2022/08/06 10:19:44;;;;;;;2.75;1.48;;;22.50;91.70;;;22.58;49.37;98043.75;5022989;28;20067;-40
2022/08/06 10:22:14;;;;;;;2.97;1.45;;;22.70;91.30;;;22.64;48.24;98043.28;5023218;28;20041;-40
2022/08/06 10:24:49;;;;;;;2.60;1.60;;;22.90;90.80;;;22.66;47.65;98051.25;5018795;28;20038;-42
2022/08/06 10:27:32;;;;;;;2.00;1.40;;;23.00;90.20;;;22.92;47.97;98048.41;5000858;28;20030;-40
2022/08/06 10:30:06;;;;;;;6.20;1.33;;;23.10;90.30;;;22.96;46.10;98041.81;5021257;28;20405;-41
2022/08/06 10:32:48;;;;;;;2.58;1.73;;;23.10;88.90;;;22.94;47.82;98038.38;5017080;28;20013;-40
2022/08/06 10:35:18;;;;;;;5.38;1.52;;;23.20;90.10;;;22.98;48.67;98035.31;5019389;28;20021;-41
2022/08/06 10:37:51;;;;;;;2.03;1.40;;;23.30;90.20;;;23.09;47.30;98033.66;5018897;28;20093;-40